Time;durP1;ratioP1;P1;durP2;ratioP2;P2;SDS_P1;SDS_P2;PMS_P1;PMS_P2;Temp;Humidity;BMP_temperature;BMP_pressure;BME280_temperature;BME280_humidity;BME280_pressure;Samples;Min_cycle;Max_cycle;Signal;HPM_P1;HPM_P2
2022/09/27 00:01:27;;;;;;;3.35;2.65;;;;;;;21.55;56.70;99601.44;5114045;28;20066;-78
2022/09/27 00:03:55;;;;;;;3.78;2.38;;;;;;;21.57;57.23;99606.66;5113822;28;20475;-78
2022/09/27 00:06:26;;;;;;;3.25;2.63;;;;;;;21.56;57.02;99599.63;5075058;28;20049;-78
2022/09/27 00:08:54;;;;;;;4.13;2.58;;;;;;;21.55;57.36;99598.75;5010868;28;20057;-78
2022/09/27 00:11:34;;;;;;;4.18;2.30;;;;;;;21.56;57.37;99595.06;5009112;28;20412;-78
2022/09/27 00:14:03;;;;;;;3.13;2.28;;;;;;;21.55;57.35;99601.44;5010922;28;20072;-78
2022/09/27 00:16:33;;;;;;;3.25;2.10;;;;;;;21.55;57.34;99598.75;5010406;28;20050;-78
2022/09/27 00:19:03;;;;;;;2.80;2.22;;;;;;;21.54;57.35;99597.06;5010464;28;20045;-77
2022/09/27 00:21:33;;;;;;;;;;;;;;;21.54;57.44;99583.63;5011324;28;20049;-77
2022/09/27 00:24:01;;;;;;;3.35;2.38;;;;;;;21.55;57.35;99581.75;5010248;28;19929;-78
2022/09/27 00:26:28;;;;;;;3.45;2.65;;;;;;;21.55;57.39;99576.38;5010316;28;20050;-78
2022/09/27 00:28:56;;;;;;;3.45;2.42;;;;;;;21.55;57.44;99584.44;5010403;28;20045;-77
2022/09/27 00:31:28;;;;;;;4.68;2.53;;;;;;;21.55;57.34;99585.28;5006636;28;20053;-77
2022/09/27 00:34:01;;;;;;;3.10;2.10;;;;;;;21.55;57.38;99596.06;5010020;28;20069;-78
2022/09/27 00:36:29;;;;;;;3.88;2.72;;;;;;;21.54;57.27;99591.69;5009345;28;20058;-78
2022/09/27 00:39:00;;;;;;;4.55;2.83;;;;;;;21.53;57.29;99576.56;5008355;28;20050;-78
2022/09/27 00:41:33;;;;;;;2.80;2.40;;;;;;;21.54;57.37;99580.91;5012908;28;20511;-78
2022/09/27 00:44:04;;;;;;;3.17;2.38;;;;;;;21.53;57.46;99570.34;5014841;28;20068;-78
2022/09/27 00:46:55;;;;;;;5.32;2.53;;;;;;;21.52;57.42;99568.66;5012453;28;20045;-77
2022/09/27 00:49:30;;;;;;;3.10;2.70;;;;;;;21.53;57.34;99559.56;5011809;28;20378;-78
2022/09/27 00:52:03;;;;;;;3.30;2.20;;;;;;;21.53;57.44;99562.25;5013238;28;20042;-77
2022/09/27 00:54:33;;;;;;;3.42;2.38;;;;;;;21.53;57.27;99576.56;5013343;28;20046;-77
2022/09/27 00:57:01;;;;;;;2.85;2.33;;;;;;;21.53;57.25;99575.72;5011820;28;20057;-77
2022/09/27 00:59:38;;;;;;;2.60;2.25;;;;;;;21.53;56.89;99571.16;5012125;28;20408;-77
2022/09/27 01:02:07;;;;;;;3.83;2.28;;;;;;;21.52;56.79;99577.56;5012015;28;20065;-77
2022/09/27 01:04:37;;;;;;;3.10;2.30;;;;;;;21.52;56.55;99572.19;5013164;28;20054;-77
2022/09/27 01:07:05;;;;;;;3.95;2.58;;;;;;;21.52;57.00;99565.97;4998737;28;20054;-77
2022/09/27 01:09:33;;;;;;;3.72;2.42;;;;;;;21.53;57.23;99564.94;5032025;28;20039;-77
2022/09/27 01:12:38;;;;;;;2.90;2.33;;;;;;;21.52;57.18;99569.50;5114723;28;20449;-77
2022/09/27 01:15:27;;;;;;;2.85;2.35;;;;;;;21.52;57.19;99563.28;5116971;28;20054;-77
2022/09/27 01:18:16;;;;;;;3.28;2.30;;;;;;;21.51;57.16;99559.72;5115039;28;20063;-78
2022/09/27 01:21:21;;;;;;;3.03;2.30;;;;;;;21.50;57.18;99555.34;5115393;28;20052;-78
2022/09/27 01:24:00;;;;;;;3.20;2.60;;;;;;;21.51;57.24;99540.03;5115160;28;20046;-78
2022/09/27 01:26:57;;;;;;;4.18;2.63;;;;;;;21.51;57.01;99548.94;5114994;28;20058;-78
2022/09/27 01:29:37;;;;;;;3.10;2.22;;;;;;;21.50;57.22;99541.91;5115170;28;20047;-78
2022/09/27 01:32:26;;;;;;;3.78;2.58;;;;;;;21.50;57.19;99533.81;5026639;27;20061;-78
2022/09/27 01:35:26;;;;;;;3.30;2.17;;;;;;;21.50;57.19;99528.44;4992140;28;20050;-78
2022/09/27 01:38:12;;;;;;;5.15;2.40;;;;;;;21.49;57.12;99521.38;4976400;28;20053;-78
2022/09/27 01:40:56;;;;;;;3.38;2.38;;;;;;;21.49;57.10;99516.00;4992086;28;20061;-78
2022/09/27 01:44:10;;;;;;;3.97;2.30;;;;;;;21.50;57.18;99512.28;4993383;28;20053;-78
2022/09/27 01:46:47;;;;;;;4.15;2.53;;;;;;;21.50;57.10;99514.97;4991876;28;20050;-78
2022/09/27 01:49:40;;;;;;;3.40;2.58;;;;;;;21.49;57.09;99505.22;4993639;28;20046;-78
2022/09/27 01:52:11;;;;;;;2.83;2.08;;;;;;;21.49;57.06;99507.91;5011900;28;20047;-78
2022/09/27 01:54:46;;;;;;;3.30;2.55;;;;;;;21.47;57.06;99494.63;5114439;28;20055;-78
2022/09/27 01:57:45;;;;;;;2.65;2.13;;;;;;;21.48;57.13;99493.63;5113217;28;20056;-78
2022/09/27 02:00:19;;;;;;;3.70;2.67;;;;;;;21.48;57.03;99500.84;5114736;28;20059;-78
2022/09/27 02:02:54;;;;;;;3.60;2.13;;;;;;;21.48;56.98;99503.56;5116537;28;20043;-78
2022/09/27 02:05:36;;;;;;;2.63;2.22;;;;;;;21.48;57.03;99503.56;5122829;28;20050;-78
2022/09/27 02:08:31;;;;;;;3.72;2.35;;;;;;;21.48;56.95;99484.72;4991616;28;20057;-78
2022/09/27 02:11:08;;;;;;;2.70;2.30;;;;;;;21.48;57.04;99482.00;4991802;28;20050;-77
2022/09/27 02:14:10;;;;;;;3.60;2.53;;;;;;;21.47;56.95;99481.19;4975713;28;20401;-77
2022/09/27 02:16:51;;;;;;;2.45;1.98;;;;;;;21.47;57.00;99483.88;4991079;28;20058;-77
2022/09/27 02:19:48;;;;;;;3.50;2.33;;;;;;;21.48;56.97;99479.31;4992538;28;20038;-77
2022/09/27 02:22:40;;;;;;;3.63;2.30;;;;;;;21.48;56.98;99457.78;4991817;28;20054;-78
2022/09/27 02:25:24;;;;;;;3.60;2.83;;;;;;;21.47;56.85;99470.41;4992385;28;20470;-77
2022/09/27 02:28:06;;;;;;;3.78;2.33;;;;;;;21.46;57.09;99467.88;4991222;28;20050;-77
2022/09/27 02:30:35;;;;;;;3.30;2.17;;;;;;;21.46;56.86;99468.72;4991618;28;20042;-77
2022/09/27 02:33:19;;;;;;;3.72;2.10;;;;;;;21.46;56.86;99457.09;5009153;28;20034;-78
2022/09/27 02:35:47;;;;;;;3.55;2.50;;;;;;;21.46;56.92;99457.94;5010513;28;20061;-77
2022/09/27 02:38:15;;;;;;;4.30;2.42;;;;;;;21.47;56.83;99448.88;5010417;28;20505;-77
2022/09/27 02:40:44;;;;;;;3.58;2.20;;;;;;;21.46;56.91;99427.50;5011106;28;20054;-78
2022/09/27 02:43:16;;;;;;;2.70;2.28;;;;;;;21.46;56.81;99431.00;5010130;28;20053;-77
2022/09/27 02:46:21;;;;;;;3.00;2.25;;;;;;;21.46;56.80;99428.31;5011786;28;20057;-77
2022/09/27 02:49:10;;;;;;;3.08;2.58;;;;;;;21.46;56.83;99436.41;5010363;28;20053;-77
2022/09/27 02:51:49;;;;;;;3.17;2.53;;;;;;;21.46;56.81;99431.00;5010949;28;20057;-78
2022/09/27 02:54:41;;;;;;;3.50;2.30;;;;;;;21.45;56.89;99426.66;5010712;28;20405;-78
2022/09/27 02:57:40;;;;;;;4.18;2.58;;;;;;;21.45;56.82;99426.66;5008901;28;20080;-78
2022/09/27 03:00:23;;;;;;;2.55;2.35;;;;;;;21.45;56.83;99429.34;5010492;28;20045;-78
2022/09/27 03:03:02;;;;;;;2.70;2.33;;;;;;;21.45;56.78;99442.81;5010333;28;20069;-78
2022/09/27 03:05:52;;;;;;;3.17;2.20;;;;;;;21.45;56.67;99447.34;5008296;28;20497;-79
2022/09/27 03:08:20;;;;;;;2.92;2.45;;;;;;;21.45;56.81;99458.97;4990502;28;20054;-78
2022/09/27 03:10:47;;;;;;;2.78;2.35;;;;;;;21.44;56.77;99454.59;5090097;28;20035;-78
2022/09/27 03:13:15;;;;;;;3.42;2.10;;;;;;;21.44;56.76;99459.16;5114456;28;20047;-78
2022/09/27 03:15:43;;;;;;;3.92;2.33;;;;;;;21.45;56.75;99458.13;5112253;28;20059;-78
2022/09/27 03:18:16;;;;;;;2.65;2.20;;;;;;;21.44;56.74;99451.91;5121466;28;20054;-78
2022/09/27 03:21:15;;;;;;;4.68;2.40;;;;;;;21.44;56.65;99443.00;5114956;28;20066;-78
2022/09/27 03:23:43;;;;;;;3.42;2.40;;;;;;;21.43;56.73;99436.78;5147079;27;20039;-78
2022/09/27 03:26:10;;;;;;;3.92;2.30;;;;;;;21.44;56.65;99435.75;5095885;28;20051;-77
2022/09/27 03:28:39;;;;;;;3.92;2.40;;;;;;;21.44;56.65;99437.63;5112731;28;20055;-79
2022/09/27 03:31:07;;;;;;;4.88;2.50;;;;;;;21.44;56.57;99432.22;5129626;27;20044;-78
2022/09/27 03:33:46;;;;;;;6.18;2.95;;;;;;;21.44;56.58;99432.22;5025511;28;20073;-78
2022/09/27 03:36:13;;;;;;;3.22;2.08;;;;;;;21.43;56.56;99430.53;5010817;28;20382;-78
2022/09/27 03:38:41;;;;;;;2.42;2.08;;;;;;;21.44;56.57;99434.91;5009768;28;20057;-77
2022/09/27 03:41:11;;;;;;;4.95;2.45;;;;;;;21.44;56.63;99426.84;5010067;28;20050;-77
2022/09/27 03:43:40;;;;;;;3.42;2.50;;;;;;;21.44;56.57;99416.06;5009388;28;20068;-77
2022/09/27 03:46:07;;;;;;;3.05;2.05;;;;;;;21.44;56.57;99410.69;5009153;28;20045;-77
2022/09/27 03:48:35;;;;;;;2.83;2.53;;;;;;;21.43;56.61;99403.59;5009662;28;20054;-78
2022/09/27 03:51:03;;;;;;;2.80;2.50;;;;;;;21.44;56.62;99397.22;5011571;28;20046;-78
2022/09/27 03:53:30;;;;;;;2.72;2.28;;;;;;;21.44;56.58;99403.44;5042897;28;20047;-79
2022/09/27 03:55:58;;;;;;;2.75;2.30;;;;;;;21.44;56.67;99381.06;5112416;28;20052;-78
2022/09/27 03:58:25;;;;;;;5.47;2.20;;;;;;;21.44;56.62;99386.47;5112751;28;20487;-77
2022/09/27 04:00:52;;;;;;;4.28;2.40;;;;;;;21.44;56.56;99383.75;5113850;28;20039;-78
2022/09/27 04:03:20;;;;;;;2.92;2.28;;;;;;;21.42;56.58;99378.53;5114360;28;20051;-80
2022/09/27 04:06:06;;;;;;;3.67;2.20;;;;;;;21.43;56.50;99379.38;5093187;28;20056;-78
2022/09/27 04:08:37;;;;;;;2.50;2.03;;;;;;;21.44;56.46;99373.00;5011417;28;20054;-78
2022/09/27 04:11:06;;;;;;;5.00;2.20;;;;;;;21.43;56.54;99371.31;5009280;28;20050;-78
2022/09/27 04:13:34;;;;;;;4.70;1.98;;;;;;;21.43;56.35;99363.22;5009100;28;20050;-78
2022/09/27 04:16:02;;;;;;;3.72;2.28;;;;;;;21.43;56.74;99365.91;5011153;28;20060;-76
2022/09/27 04:18:48;;;;;;;2.83;2.42;;;;;;;21.42;56.58;99361.56;5020437;28;20053;-77
2022/09/27 04:21:34;;;;;;;3.67;2.13;;;;;;;21.43;56.58;99363.22;5020201;28;20115;-77
2022/09/27 04:24:02;;;;;;;2.85;2.20;;;;;;;21.42;56.60;99370.47;5012371;28;20049;-76
2022/09/27 04:26:29;;;;;;;2.65;2.05;;;;;;;21.42;56.48;99366.94;5012869;28;20062;-77
2022/09/27 04:29:09;;;;;;;4.88;2.80;;;;;;;21.41;56.60;99366.09;5012325;28;20079;-77
2022/09/27 04:31:40;;;;;;;3.42;2.15;;;;;;;21.42;56.54;99348.09;5012470;28;20497;-77
2022/09/27 04:37:20;;;;;;;4.30;2.20;;;;;;;21.41;56.51;99335.66;5012277;28;20413;-77
2022/09/27 04:39:49;;;;;;;3.92;2.45;;;;;;;21.39;56.56;99333.16;5013234;28;20046;-77
2022/09/27 04:42:17;;;;;;;2.53;2.33;;;;;;;21.40;56.50;99324.06;5013893;28;20049;-77
2022/09/27 04:44:46;;;;;;;3.63;2.40;;;;;;;21.41;56.52;99319.50;5013186;28;20057;-76
2022/09/27 04:47:14;;;;;;;4.00;2.72;;;;;;;21.40;56.48;99315.16;5012347;28;20058;-77
2022/09/27 04:49:42;;;;;;;4.47;2.50;;;;;;;21.40;56.57;99318.69;5012140;28;20046;-77
2022/09/27 04:52:09;;;;;;;5.05;2.60;;;;;;;21.38;56.56;99320.69;5011920;28;20054;-76
2022/09/27 04:54:37;;;;;;;2.85;2.45;;;;;;;21.40;56.47;99329.44;5012269;28;20046;-77
2022/09/27 04:57:11;;;;;;;3.58;2.30;;;;;;;21.39;56.48;99330.47;5013594;28;20052;-77
2022/09/27 04:59:41;;;;;;;3.78;2.13;;;;;;;21.40;56.48;99336.69;5011552;28;20054;-77
2022/09/27 05:02:09;;;;;;;2.90;2.60;;;;;;;21.40;56.37;99342.06;5013551;28;20386;-76
2022/09/27 05:04:58;;;;;;;4.22;2.55;;;;;;;21.40;56.38;99339.38;4972037;28;20061;-77
2022/09/27 05:07:32;;;;;;;3.78;2.60;;;;;;;21.38;56.35;99333.31;4954856;28;20051;-76
2022/09/27 05:10:04;;;;;;;5.72;2.55;;;;;;;21.38;56.36;99330.63;4942530;28;20062;-77
2022/09/27 05:12:32;;;;;;;3.90;2.55;;;;;;;21.39;56.39;99330.47;4952725;29;20529;-76
2022/09/27 05:15:01;;;;;;;3.38;2.25;;;;;;;21.38;56.35;99331.47;4968048;28;20403;-77
2022/09/27 05:17:50;;;;;;;2.80;2.15;;;;;;;21.38;56.30;99336.84;4959520;28;20442;-76
2022/09/27 05:20:36;;;;;;;2.95;2.35;;;;;;;21.39;56.25;99351.16;4959740;28;20054;-76
2022/09/27 05:23:12;;;;;;;4.13;2.28;;;;;;;21.38;56.27;99346.78;4936050;29;20066;-77
2022/09/27 05:25:41;;;;;;;4.47;2.20;;;;;;;21.37;56.18;99345.94;4952691;29;20507;-76
2022/09/27 05:28:08;;;;;;;2.88;2.40;;;;;;;21.38;56.20;99349.47;4936022;29;20054;-76
2022/09/27 05:30:36;;;;;;;2.75;2.10;;;;;;;21.37;56.13;99347.81;4967609;28;20058;-76
2022/09/27 05:33:08;;;;;;;3.60;2.50;;;;;;;21.37;56.19;99353.19;4937456;28;20048;-76
2022/09/27 05:35:52;;;;;;;3.65;2.72;;;;;;;21.36;56.14;99351.53;4968501;28;20058;-77
2022/09/27 05:38:24;;;;;;;3.15;2.60;;;;;;;21.36;56.11;99356.91;4986865;28;20417;-77
2022/09/27 05:40:54;;;;;;;4.78;2.88;;;;;;;21.35;56.12;99349.84;4986925;28;20511;-77
2022/09/27 05:43:24;;;;;;;2.78;2.30;;;;;;;21.36;56.06;99341.59;5022651;28;20061;-77
2022/09/27 05:45:51;;;;;;;4.45;2.47;;;;;;;21.36;56.11;99349.66;4993099;28;20057;-77
2022/09/27 05:48:21;;;;;;;3.65;2.55;;;;;;;21.36;56.09;99356.91;4991524;28;20058;-77
2022/09/27 05:51:05;;;;;;;3.65;2.35;;;;;;;21.35;56.04;99347.13;4991913;28;20073;-76
2022/09/27 05:53:36;;;;;;;3.13;2.13;;;;;;;21.36;56.05;99356.91;5027517;28;20051;-77
2022/09/27 05:56:07;;;;;;;4.00;2.47;;;;;;;21.34;56.12;99345.47;5113752;28;20510;-77
2022/09/27 05:58:54;;;;;;;3.55;2.50;;;;;;;21.35;55.99;99347.13;5115492;28;20063;-76
2022/09/27 06:01:26;;;;;;;3.78;2.50;;;;;;;;;;5148674;27;20052;-77
2022/09/27 06:04:20;;;;;;;3.88;2.45;;;;;;;21.36;55.95;99348.84;5053248;28;20056;-77
2022/09/27 06:07:02;;;;;;;3.42;2.38;;;;;;;21.36;55.88;99346.16;4969525;28;20495;-77
2022/09/27 06:09:30;;;;;;;3.28;2.47;;;;;;;21.35;55.90;99349.84;5019748;28;20062;-77
2022/09/27 06:11:58;;;;;;;4.93;2.40;;;;;;;;;;4951720;28;20063;-77
2022/09/27 06:14:25;;;;;;;4.20;2.40;;;;;;;21.34;55.74;99345.47;5018685;28;20056;-77
2022/09/27 06:16:58;;;;;;;2.88;2.33;;;;;;;;;;4951383;28;20051;-76
2022/09/27 06:19:29;;;;;;;3.38;2.80;;;;;;;21.36;55.61;99352.34;5018798;28;20058;-76
2022/09/27 06:21:56;;;;;;;4.00;2.85;;;;;;;21.36;55.44;99348.84;4951425;28;20155;-76
2022/09/27 06:24:30;;;;;;;2.92;2.30;;;;;;;21.37;55.64;99361.28;4951461;28;20102;-76
2022/09/27 06:27:02;;;;;;;2.53;2.33;;;;;;;;;;5019220;28;20047;-76
2022/09/27 06:29:42;;;;;;;2.58;2.38;;;;;;;21.36;55.65;99356.91;5018688;28;20051;-76
2022/09/27 06:32:19;;;;;;;4.95;2.20;;;;;;;21.37;55.89;99363.97;5020460;28;20055;-76
2022/09/27 06:34:53;;;;;;;4.40;3.03;;;;;;;21.37;55.18;99370.19;5019068;28;20054;-77
2022/09/27 06:37:25;;;;;;;6.40;3.38;;;;;;;21.37;54.46;99370.19;5028244;28;20053;-76
2022/09/27 06:39:54;;;;;;;6.13;3.17;;;;;;;21.39;54.70;99375.38;5033028;28;20049;-76
2022/09/27 06:42:43;;;;;;;4.70;3.28;;;;;;;21.39;54.96;99383.44;5053212;28;20049;-76
2022/09/27 06:45:16;;;;;;;3.75;3.20;;;;;;;21.39;54.43;99380.75;5069132;28;20072;-76
2022/09/27 06:48:04;;;;;;;3.70;3.22;;;;;;;21.39;54.30;99383.44;5055057;28;20075;-77
2022/09/27 06:50:44;;;;;;;8.48;3.13;;;;;;;21.39;55.22;99384.31;5071963;28;20544;-77
2022/09/27 06:53:14;;;;;;;7.95;4.78;;;;;;;21.41;53.60;99381.44;5071150;28;20179;-76
2022/09/27 06:55:42;;;;;;;7.95;4.10;;;;;;;21.42;53.68;99380.41;5056411;28;20048;-80
2022/09/27 07:01:16;;;;;;;4.20;3.60;;;;;;;21.43;52.69;99388.31;5074417;28;20060;-79
2022/09/27 07:04:10;;;;;;;6.32;4.25;;;;;;;21.43;52.92;99388.31;5037114;28;20099;-78
2022/09/27 07:07:03;;;;;;;5.40;4.20;;;;;;;21.45;53.12;99393.50;5069751;28;20060;-76
2022/09/27 07:09:38;;;;;;;4.25;3.63;;;;;;;21.45;53.60;99391.66;5056827;28;20071;-79
2022/09/27 07:12:06;;;;;;;9.45;4.28;;;;;;;21.46;53.42;99393.31;5056471;28;20500;-77
2022/09/27 07:14:34;;;;;;;5.72;4.45;;;;;;;21.45;53.02;99397.03;5073604;28;20061;-78
2022/09/27 07:17:02;;;;;;;4.95;2.80;;;;;;;21.47;54.53;99394.16;5055201;28;20063;-76
2022/09/27 07:19:36;;;;;;;5.22;3.53;;;;;;;21.48;54.54;99398.53;5052069;28;20485;-75
2022/09/27 07:22:04;;;;;;;4.40;3.08;;;;;;;21.50;54.55;99406.44;5010044;28;20046;-76
2022/09/27 07:24:33;;;;;;;6.00;3.58;;;;;;;21.50;54.26;99407.25;5010101;28;20056;-78
2022/09/27 07:27:03;;;;;;;9.95;4.13;;;;;;;21.50;54.60;99404.56;5011697;28;20061;-75
2022/09/27 07:29:30;;;;;;;8.73;5.30;;;;;;;21.50;54.26;99409.97;5011101;28;20501;-76
2022/09/27 07:31:59;;;;;;;7.07;4.20;;;;;;;21.51;54.03;99416.16;5010214;28;20508;-78
2022/09/27 07:34:27;;;;;;;7.55;5.10;;;;;;;21.52;54.15;99404.41;5009887;28;20053;-76
2022/09/27 07:36:59;;;;;;;8.65;4.55;;;;;;;21.53;53.95;99409.59;5010950;28;20050;-76
2022/09/27 07:39:27;;;;;;;7.45;4.65;;;;;;;21.52;53.97;99407.94;5009885;28;20057;-78
2022/09/27 07:41:55;;;;;;;8.10;5.10;;;;;;;21.54;53.53;99415.81;5064112;28;20047;-76
2022/09/27 07:44:22;;;;;;;5.38;4.13;;;;;;;21.55;54.22;99420.19;5115304;28;20050;-77
2022/09/27 07:47:11;;;;;;;6.38;3.90;;;;;;;21.55;54.45;99410.25;5109148;27;20043;-75
2022/09/27 07:50:04;;;;;;;5.15;3.92;;;;;;;21.56;54.51;99414.63;5008735;28;20064;-75
2022/09/27 07:52:51;;;;;;;4.10;3.70;;;;;;;21.57;54.46;99410.09;5009229;28;20046;-76
2022/09/27 07:55:36;;;;;;;5.88;4.43;;;;;;;21.56;53.83;99403.88;5018314;28;20061;-75
2022/09/27 07:58:11;;;;;;;5.53;3.95;;;;;;;21.57;54.23;99408.22;5042314;28;20498;-75
2022/09/27 08:00:40;;;;;;;8.20;4.05;;;;;;;21.58;54.32;99401.81;5009093;28;20064;-76
2022/09/27 08:03:15;;;;;;;6.88;4.78;;;;;;;21.59;54.53;99403.50;5042543;28;20054;-76
2022/09/27 08:05:46;;;;;;;7.47;5.93;;;;;;;21.59;53.55;99403.50;5009778;28;20050;-78
2022/09/27 08:08:15;;;;;;;5.68;5.13;;;;;;;21.61;53.88;99411.41;5010130;28;20050;-77
2022/09/27 08:10:46;;;;;;;8.52;5.13;;;;;;;21.62;54.39;99407.69;5042547;28;20050;-78
2022/09/27 08:13:18;;;;;;;5.10;4.05;;;;;;;21.62;54.40;99408.50;5010127;28;20046;-78
2022/09/27 08:15:47;;;;;;;;;;;;;;;21.62;54.46;99408.50;5010094;28;20053;-77
2022/09/27 08:18:16;;;;;;;7.38;4.72;;;;;;;21.63;54.64;99412.91;5009201;28;19925;-76
2022/09/27 08:20:55;;;;;;;6.22;4.13;;;;;;;21.63;54.95;99412.91;5017342;28;20489;-77
2022/09/27 08:23:29;;;;;;;7.38;4.82;;;;;;;21.65;54.52;99418.94;5042622;28;20065;-77
2022/09/27 08:26:28;;;;;;;8.15;4.65;;;;;;;21.66;54.72;99407.13;4990099;28;20401;-77
2022/09/27 08:29:03;;;;;;;5.95;4.78;;;;;;;21.70;54.62;99413.00;4989772;28;20054;-78
2022/09/27 08:31:37;;;;;;;5.55;4.53;;;;;;;21.69;54.69;99408.63;4972890;28;20054;-77
2022/09/27 08:34:06;;;;;;;7.35;4.20;;;;;;;21.69;54.56;99409.47;4989260;28;20058;-78
2022/09/27 08:36:36;;;;;;;7.22;4.13;;;;;;;21.69;54.56;99409.47;4988369;28;20492;-77
2022/09/27 08:39:04;;;;;;;7.28;4.30;;;;;;;21.70;54.30;99416.53;4972880;28;20058;-76
2022/09/27 08:42:20;;;;;;;7.75;4.72;;;;;;;21.71;54.51;99411.97;4990712;28;20058;-76
2022/09/27 08:45:08;;;;;;;11.15;6.22;;;;;;;21.72;54.19;99419.88;4989083;28;20058;-77
2022/09/27 08:47:35;;;;;;;8.20;5.05;;;;;;;21.73;54.43;99412.63;4972829;28;20081;-77
2022/09/27 08:50:18;;;;;;;8.93;5.25;;;;;;;21.73;54.45;99407.25;4972817;28;20505;-75
2022/09/27 08:52:56;;;;;;;6.32;4.82;;;;;;;21.73;54.34;99413.47;4972709;28;20059;-75
2022/09/27 08:55:36;;;;;;;11.63;5.10;;;;;;;21.75;54.23;99407.06;4972817;28;20050;-75
2022/09/27 08:58:27;;;;;;;6.85;4.55;;;;;;;21.75;54.33;99407.88;4972779;28;20069;-77
2022/09/27 09:01:02;;;;;;;5.18;4.00;;;;;;;21.75;54.08;99407.06;4973295;28;20046;-77
2022/09/27 09:03:38;;;;;;;8.88;4.05;;;;;;;21.77;53.77;99410.41;5001841;28;20046;-76
2022/09/27 09:06:16;;;;;;;5.97;3.72;;;;;;;21.76;54.19;99397.97;5011814;28;20054;-77
2022/09/27 09:09:05;;;;;;;7.85;4.05;;;;;;;21.75;53.96;99397.13;5045347;28;20054;-78
2022/09/27 09:15:11;;;;;;;7.82;5.18;;;;;;;21.76;54.18;99384.50;5012467;28;20124;-78
2022/09/27 09:18:03;;;;;;;7.50;4.00;;;;;;;21.77;54.07;99383.47;5045333;28;20404;-77
2022/09/27 09:20:54;;;;;;;4.63;3.90;;;;;;;21.77;54.18;99376.22;5011665;28;20066;-76
2022/09/27 09:23:50;;;;;;;7.05;4.53;;;;;;;21.78;54.20;99385.16;5044927;28;20499;-76
2022/09/27 09:26:26;;;;;;;7.53;4.80;;;;;;;21.79;54.33;99392.19;5013793;28;20488;-76
2022/09/27 09:28:56;;;;;;;12.75;5.03;;;;;;;21.79;54.19;99387.66;5045299;28;20046;-77
2022/09/27 09:31:52;;;;;;;5.43;4.38;;;;;;;21.79;54.15;99387.66;5029038;28;20484;-76
2022/09/27 09:34:25;;;;;;;6.03;4.20;;;;;;;21.79;54.17;99378.72;5011889;28;20069;-78
2022/09/27 09:37:00;;;;;;;7.68;4.50;;;;;;;21.80;54.19;99383.13;5012234;28;20493;-76
2022/09/27 09:39:43;;;;;;;4.97;3.67;;;;;;;21.80;54.08;99380.44;5011843;28;20050;-77
2022/09/27 09:42:24;;;;;;;8.48;3.65;;;;;;;21.81;54.06;99371.31;5011368;28;20531;-75
2022/09/27 09:44:58;;;;;;;5.43;3.63;;;;;;;21.81;54.19;99371.31;5012181;28;20045;-78
2022/09/27 09:47:36;;;;;;;4.43;3.00;;;;;;;21.82;53.81;99370.28;5011463;28;20050;-76
2022/09/27 09:50:17;;;;;;;7.70;3.63;;;;;;;21.81;53.74;99372.16;5011549;28;20045;-77
2022/09/27 09:52:54;;;;;;;5.22;3.50;;;;;;;21.82;53.69;99370.28;5011756;28;20405;-76
2022/09/27 09:55:32;;;;;;;4.20;3.25;;;;;;;21.82;53.46;99368.44;5012035;28;20053;-76
2022/09/27 09:58:09;;;;;;;8.65;3.90;;;;;;;21.83;53.64;99366.56;5012924;28;20061;-78
2022/09/27 10:00:46;;;;;;;4.07;3.28;;;;;;;21.83;53.49;99367.41;5010724;28;20061;-77
2022/09/27 10:03:13;;;;;;;5.40;3.80;;;;;;;21.83;53.44;99364.72;5011288;28;20057;-82
2022/09/27 10:05:45;;;;;;;7.97;3.72;;;;;;;21.84;53.51;99360.19;5011901;28;20049;-76
2022/09/27 10:08:17;;;;;;;4.57;3.00;;;;;;;21.84;53.65;99352.09;5011098;28;20054;-76
2022/09/27 10:10:48;;;;;;;6.30;3.55;;;;;;;21.86;53.65;99355.44;5011211;28;20523;-75
2022/09/27 10:13:46;;;;;;;7.28;3.90;;;;;;;21.85;53.37;99360.00;5044132;28;20050;-77
2022/09/27 10:16:17;;;;;;;5.68;3.42;;;;;;;21.86;53.29;99355.44;5044275;28;20054;-77
2022/09/27 10:18:47;;;;;;;4.97;3.60;;;;;;;21.88;53.21;99348.03;5011033;28;20414;-77
2022/09/27 10:21:30;;;;;;;5.97;3.13;;;;;;;21.88;52.99;99345.31;5044217;28;20485;-76
2022/09/27 10:24:08;;;;;;;5.50;3.40;;;;;;;21.88;52.94;99343.47;5044221;28;20476;-76
2022/09/27 10:27:02;;;;;;;4.13;3.50;;;;;;;21.88;53.10;99338.06;5011111;28;20073;-76
2022/09/27 10:29:36;;;;;;;7.50;3.17;;;;;;;21.89;52.73;99338.91;5011098;28;20058;-76
2022/09/27 10:32:24;;;;;;;7.22;3.80;;;;;;;21.89;52.53;99341.59;5011109;28;20060;-77
2022/09/27 10:35:49;;;;;;;6.10;3.50;;;;;;;21.89;52.38;99334.34;5010658;28;20398;-75
2022/09/27 10:38:29;;;;;;;4.53;3.40;;;;;;;21.90;52.44;99329.78;5068754;28;20055;-75
2022/09/27 10:41:26;;;;;;;4.38;3.22;;;;;;;21.89;52.43;99328.13;5053245;28;20052;-76
2022/09/27 10:44:14;;;;;;;4.82;3.05;;;;;;;21.89;52.39;99328.13;5035546;28;20045;-76
2022/09/27 10:46:50;;;;;;;5.95;3.00;;;;;;;21.89;52.08;99326.28;5035390;28;20508;-76
2022/09/27 10:49:40;;;;;;;4.03;3.17;;;;;;;21.89;52.43;99328.97;5045058;28;20060;-75
2022/09/27 10:52:27;;;;;;;13.68;5.07;;;;;;;21.90;52.30;99319.03;5035174;28;20060;-77
2022/09/27 10:54:59;;;;;;;5.70;2.83;;;;;;;21.91;52.33;99331.47;5035508;28;20049;-77
2022/09/27 10:57:29;;;;;;;6.05;2.75;;;;;;;21.91;53.43;99318.00;5035234;28;20251;-74
2022/09/27 11:00:16;;;;;;;7.10;3.05;;;;;;;21.92;55.59;99325.91;5035636;28;20052;-74
2022/09/27 11:02:51;;;;;;;4.93;3.00;;;;;;;21.91;54.80;99326.06;5034824;28;20524;-76
2022/09/27 11:05:24;;;;;;;7.22;3.22;;;;;;;21.90;56.16;99324.41;5052361;28;20460;-76
2022/09/27 11:07:54;;;;;;;5.40;3.33;;;;;;;21.86;57.08;99318.53;5033234;28;20049;-75
2022/09/27 11:10:33;;;;;;;6.85;3.15;;;;;;;21.85;57.56;99332.22;5008695;28;20505;-75
2022/09/27 11:13:17;;;;;;;3.95;3.55;;;;;;;21.82;58.15;99328.03;5009838;28;20052;-75
2022/09/27 11:16:15;;;;;;;4.15;2.90;;;;;;;21.81;57.98;99330.91;5042655;28;20416;-75
2022/09/27 11:18:52;;;;;;;17.17;3.22;;;;;;;21.79;58.45;99328.38;5009657;28;20050;-75
2022/09/27 11:21:41;;;;;;;6.40;3.30;;;;;;;21.77;58.90;99326.91;5042668;28;20061;-75
2022/09/27 11:24:21;;;;;;;7.10;3.28;;;;;;;21.76;58.32;99325.25;5009682;28;20050;-76
2022/09/27 11:27:14;;;;;;;4.75;2.90;;;;;;;21.75;58.78;99321.69;5042193;28;20058;-75
2022/09/27 11:30:18;;;;;;;4.57;2.65;;;;;;;21.75;59.56;99320.84;5010160;28;20053;-75
2022/09/27 11:33:37;;;;;;;6.32;3.10;;;;;;;21.72;59.59;99320.22;4989935;28;20066;-75
2022/09/27 11:36:09;;;;;;;4.63;3.25;;;;;;;21.71;60.25;99317.69;4973368;28;20057;-75
2022/09/27 11:38:57;;;;;;;3.95;3.22;;;;;;;21.70;60.40;99319.56;4973401;28;20061;-75
2022/09/27 11:41:41;;;;;;;8.13;3.85;;;;;;;21.69;60.72;99317.88;4973167;28;20057;-75
2022/09/27 11:44:24;;;;;;;4.22;3.47;;;;;;;21.69;60.84;99325.97;4973039;28;20050;-75
2022/09/27 11:47:09;;;;;;;8.13;3.33;;;;;;;21.70;61.31;99318.72;4989201;28;20054;-75
2022/09/27 11:49:56;;;;;;;6.82;3.42;;;;;;;21.69;61.60;99317.06;4988999;28;20419;-75
2022/09/27 11:52:33;;;;;;;6.13;3.30;;;;;;;21.68;61.71;99324.31;4973032;28;20058;-75
2022/09/27 11:55:24;;;;;;;5.53;3.60;;;;;;;21.66;61.31;99314.72;4973047;28;20131;-75
2022/09/27 11:58:03;;;;;;;8.15;3.05;;;;;;;21.68;61.43;99312.69;4973146;28;20054;-74
2022/09/27 12:01:01;;;;;;;5.13;3.25;;;;;;;21.69;61.06;99317.88;4958440;28;20054;-73
2022/09/27 12:04:08;;;;;;;5.65;2.92;;;;;;;21.70;60.94;99321.41;4973130;28;20050;-73
2022/09/27 12:06:38;;;;;;;3.83;2.83;;;;;;;21.69;61.06;99312.50;4972898;28;20490;-75
2022/09/27 12:09:14;;;;;;;4.93;3.00;;;;;;;21.69;61.14;99315.19;4974948;28;20188;-74
2022/09/27 12:11:50;;;;;;;4.35;2.65;;;;;;;21.70;61.89;99313.34;5009356;28;20053;-74
2022/09/27 12:14:20;;;;;;;7.43;3.13;;;;;;;21.70;61.91;99308.78;5008457;28;20065;-74
2022/09/27 12:16:55;;;;;;;5.85;2.97;;;;;;;21.72;61.64;99314.84;5009097;28;20050;-74
2022/09/27 12:19:34;;;;;;;5.35;3.00;;;;;;;21.71;61.88;99318.56;5008784;28;20050;-74
2022/09/27 12:22:10;;;;;;;7.70;3.30;;;;;;;21.72;62.25;99316.69;5008916;28;20054;-74
2022/09/27 12:24:42;;;;;;;4.03;2.72;;;;;;;21.73;62.36;99307.59;5009643;28;20041;-76
2022/09/27 12:27:50;;;;;;;7.20;3.28;;;;;;;21.71;61.76;99302.41;5017623;28;20068;-74
2022/09/27 12:30:21;;;;;;;4.53;3.50;;;;;;;21.71;61.53;99302.41;5008686;28;20060;-75
2022/09/27 12:33:05;;;;;;;4.65;3.38;;;;;;;21.72;60.59;99303.22;5009593;28;20310;-74
2022/09/27 12:35:43;;;;;;;7.68;3.45;;;;;;;21.72;60.69;99301.38;5010643;28;20409;-75